Time;durP1;ratioP1;P1;durP2;ratioP2;P2;SDS_P1;SDS_P2;PMS_P1;PMS_P2;Temp;Humidity;BMP_temperature;BMP_pressure;BME280_temperature;BME280_humidity;BME280_pressure;Samples;Min_cycle;Max_cycle;Signal;HPM_P1;HPM_P2
2022/01/02 00:01:43;;;;;;;8.18;4.25;;;;;;;11.28;87.73;101707.63;5117156;28;20023;-66
2022/01/02 00:04:14;;;;;;;10.45;4.35;;;;;;;11.33;87.96;101700.63;5117028;28;20059;-65
2022/01/02 00:06:46;;;;;;;8.17;4.63;;;;;;;11.37;87.82;101702.38;5117045;28;20039;-66
2022/01/02 00:09:19;;;;;;;8.20;4.15;;;;;;;11.35;87.60;101706.75;5116850;28;20419;-67
2022/01/02 00:11:49;;;;;;;6.18;4.38;;;;;;;11.26;87.78;101718.97;5116573;28;20046;-64
2022/01/02 00:14:20;;;;;;;9.10;4.30;;;;;;;11.30;87.56;101721.59;5116985;28;20411;-65
2022/01/02 00:16:50;;;;;;;8.90;4.45;;;;;;;11.25;87.98;101733.00;5116452;28;20042;-65
2022/01/02 00:19:21;;;;;;;7.07;4.30;;;;;;;11.27;87.65;101731.22;5116363;28;20092;-66
2022/01/02 00:21:47;;;;;;;9.23;4.35;;;;;;;11.24;88.37;101726.88;5116424;28;20035;-66
2022/01/02 00:24:18;;;;;;;8.10;4.55;;;;;;;11.35;87.29;101722.47;5116232;28;20042;-69
2022/01/02 00:26:45;;;;;;;11.40;6.63;;;;;;;11.37;87.24;101723.34;5116631;28;20111;-67
2022/01/02 00:29:12;;;;;;;9.52;4.40;;;;;;;11.31;87.98;101717.25;5116467;28;20031;-67
2022/01/02 00:31:39;;;;;;;7.72;4.65;;;;;;;11.33;87.59;101710.25;5116182;28;20414;-66
2022/01/02 00:34:06;;;;;;;6.95;4.25;;;;;;;11.27;88.49;101708.50;5116199;28;20422;-66
2022/01/02 00:36:32;;;;;;;8.68;4.22;;;;;;;11.31;88.66;101701.50;5116263;28;20027;-67
2022/01/02 00:38:57;;;;;;;9.95;4.40;;;;;;;11.31;88.99;101697.16;5115831;28;20047;-66
2022/01/02 00:41:26;;;;;;;7.15;4.13;;;;;;;11.32;89.59;101704.13;5115963;28;20342;-65
2022/01/02 00:44:13;;;;;;;7.05;4.22;;;;;;;11.34;90.13;101712.00;5115739;28;20414;-67
2022/01/02 00:47:03;;;;;;;9.88;4.10;;;;;;;11.18;91.05;101711.16;5115905;28;20537;-66
2022/01/02 00:49:29;;;;;;;7.63;4.40;;;;;;;11.18;92.71;101718.16;5099345;28;20035;-65
2022/01/02 00:52:07;;;;;;;8.27;4.30;;;;;;;11.09;93.99;101714.66;5116060;28;20034;-65
2022/01/02 00:54:36;;;;;;;9.73;4.50;;;;;;;11.09;94.30;101698.06;5116245;28;20039;-65
2022/01/02 00:57:12;;;;;;;12.23;5.00;;;;;;;11.02;94.85;101697.22;5115791;28;20035;-66
2022/01/02 00:59:47;;;;;;;7.55;4.40;;;;;;;10.96;95.39;101689.38;5115622;28;20063;-65
2022/01/02 01:02:16;;;;;;;7.38;4.78;;;;;;;10.87;96.54;101680.66;5115584;28;20477;-67
2022/01/02 01:04:43;;;;;;;10.57;4.65;;;;;;;10.81;97.23;101679.78;5115464;28;20032;-69
2022/01/02 01:07:10;;;;;;;7.75;4.65;;;;;;;10.81;97.74;101684.16;5115782;28;20051;-66
2022/01/02 01:09:35;;;;;;;8.13;4.28;;;;;;;10.84;97.72;101689.38;5115606;28;20063;-66
2022/01/02 01:12:03;;;;;;;9.32;4.53;;;;;;;10.89;97.73;101676.31;5115068;28;20447;-66
2022/01/02 01:14:29;;;;;;;8.43;4.68;;;;;;;10.82;97.55;101671.06;5115252;28;20058;-65
2022/01/02 01:16:56;;;;;;;11.30;4.72;;;;;;;10.79;98.30;101676.28;5115472;28;20437;-66
2022/01/02 01:19:22;;;;;;;8.45;4.90;;;;;;;10.78;99.05;101674.53;5115283;28;20443;-65
2022/01/02 01:21:48;;;;;;;11.00;4.80;;;;;;;10.69;99.37;101664.09;5115421;28;20035;-68
2022/01/02 01:24:14;;;;;;;7.13;4.57;;;;;;;10.81;97.99;101658.84;5115515;28;20023;-67
2022/01/02 01:26:40;;;;;;;8.85;4.70;;;;;;;10.74;99.07;101653.59;5115373;28;20024;-66
2022/01/02 01:29:05;;;;;;;9.88;4.72;;;;;;;10.73;99.12;101671.09;5115392;28;20106;-66
2022/01/02 01:31:31;;;;;;;12.10;4.53;;;;;;;10.62;99.53;101646.63;5115211;28;20111;-66
2022/01/02 01:33:56;;;;;;;10.68;5.10;;;;;;;10.60;99.87;101635.28;5115281;28;20052;-65
2022/01/02 01:36:22;;;;;;;9.18;4.78;;;;;;;10.68;99.94;101641.41;5115179;28;20071;-65
2022/01/02 01:38:47;;;;;;;9.80;4.57;;;;;;;10.63;100.00;101655.38;5115351;28;20035;-65
2022/01/02 01:41:37;;;;;;;9.20;4.70;;;;;;;10.71;100.00;101638.78;5115452;28;20028;-65
2022/01/02 01:46:36;;;;;;;10.02;4.47;;;;;;;10.62;100.00;101640.53;5115212;28;20032;-65
2022/01/02 01:49:12;;;;;;;11.45;4.70;;;;;;;10.60;100.00;101637.91;5115220;28;20032;-65
2022/01/02 01:51:39;;;;;;;10.15;4.65;;;;;;;10.61;100.00;101633.56;5115270;28;20023;-67
2022/01/02 01:54:04;;;;;;;11.95;4.90;;;;;;;10.69;100.00;101621.34;5096869;28;20338;-65
2022/01/02 01:56:31;;;;;;;11.80;4.55;;;;;;;10.65;100.00;101615.22;5115197;28;20028;-67
2022/01/02 01:58:56;;;;;;;13.55;4.60;;;;;;;10.69;99.96;101632.69;5114792;28;20422;-67
2022/01/02 02:01:21;;;;;;;10.90;4.80;;;;;;;10.64;100.00;101620.47;5115084;28;20123;-65
2022/01/02 02:03:47;;;;;;;10.20;4.20;;;;;;;10.68;100.00;101619.59;5115165;28;20028;-67
2022/01/02 02:06:13;;;;;;;9.23;4.55;;;;;;;10.76;99.94;101615.19;5115016;28;20039;-68
2022/01/02 02:08:38;;;;;;;7.78;4.22;;;;;;;10.68;100.00;101601.28;5115166;28;20027;-65
2022/01/02 02:11:03;;;;;;;11.50;4.93;;;;;;;10.69;100.00;101596.03;5114892;28;20308;-66
2022/01/02 02:13:29;;;;;;;9.98;4.32;;;;;;;10.67;100.00;101586.44;5114812;28;20052;-66
2022/01/02 02:15:56;;;;;;;12.20;4.97;;;;;;;10.76;99.96;101582.03;5114834;28;20036;-64
2022/01/02 02:18:21;;;;;;;9.73;4.50;;;;;;;10.72;100.00;101585.56;5115264;28;20035;-68
2022/01/02 02:20:46;;;;;;;12.57;5.38;;;;;;;10.73;100.00;101569.00;5115009;28;20032;-66
2022/01/02 02:23:13;;;;;;;12.50;4.72;;;;;;;10.74;100.00;101575.06;5115127;28;20110;-65
2022/01/02 02:25:39;;;;;;;11.25;4.63;;;;;;;10.77;100.00;101569.81;5118588;28;20037;-66
2022/01/02 02:28:07;;;;;;;10.48;4.60;;;;;;;10.75;100.00;101569.81;5118645;28;20095;-67
2022/01/02 02:30:35;;;;;;;13.85;4.80;;;;;;;10.74;100.00;101568.09;5118677;28;20088;-66
2022/01/02 02:33:02;;;;;;;14.55;4.75;;;;;;;10.79;100.00;101568.94;5118792;28;20023;-65
2022/01/02 02:35:29;;;;;;;12.57;4.60;;;;;;;10.78;100.00;101558.47;5118146;28;20059;-67
2022/01/02 02:37:55;;;;;;;11.60;4.60;;;;;;;10.79;100.00;101566.34;5118355;28;20039;-66
2022/01/02 02:40:22;;;;;;;11.98;4.75;;;;;;;10.77;100.00;101559.34;5118254;28;20042;-65
2022/01/02 02:42:53;;;;;;;11.90;4.65;;;;;;;10.81;100.00;101568.94;5118398;28;20038;-64
2022/01/02 02:51:09;;;;;;;12.85;4.70;;;;;;;10.84;100.00;101532.28;5117997;28;20091;-65
2022/01/02 02:53:40;;;;;;;13.75;4.60;;;;;;;10.89;100.00;101540.13;5117973;28;20091;-64
2022/01/02 02:56:30;;;;;;;14.85;5.00;;;;;;;10.85;100.00;101536.66;5118132;28;20069;-67
2022/01/02 02:58:57;;;;;;;14.57;4.90;;;;;;;10.85;100.00;101534.03;5117479;28;20110;-66
2022/01/02 03:01:24;;;;;;;13.60;4.88;;;;;;;10.82;100.00;101529.69;5118040;28;20069;-65
2022/01/02 03:03:50;;;;;;;13.48;4.80;;;;;;;10.84;100.00;101529.69;5117941;28;20076;-67
2022/01/02 03:06:16;;;;;;;10.02;5.00;;;;;;;10.87;100.00;101541.88;5117893;28;20043;-66
2022/01/02 03:08:43;;;;;;;11.98;4.72;;;;;;;10.81;100.00;101524.44;5117953;28;20431;-65
2022/01/02 03:11:14;;;;;;;14.00;5.88;;;;;;;10.88;100.00;101534.03;5117771;28;20461;-65
2022/01/02 03:13:40;;;;;;;14.25;4.68;;;;;;;10.85;100.00;101527.94;5117802;28;20449;-68
2022/01/02 03:16:05;;;;;;;10.00;4.60;;;;;;;10.89;100.00;101529.66;5117566;28;20031;-67
2022/01/02 03:18:31;;;;;;;10.85;4.93;;;;;;;10.84;100.00;101521.81;5117595;28;20107;-64
2022/01/02 03:20:56;;;;;;;9.85;4.95;;;;;;;10.86;100.00;101516.56;5117337;28;20024;-66
2022/01/02 03:23:21;;;;;;;11.18;5.05;;;;;;;10.82;100.00;101526.19;5117684;28;20031;-65
2022/01/02 03:25:46;;;;;;;13.30;5.28;;;;;;;10.81;100.00;101524.44;5117478;28;20131;-66
2022/01/02 03:28:12;;;;;;;10.77;5.00;;;;;;;10.85;100.00;101517.44;5118136;28;20042;-65
2022/01/02 03:30:38;;;;;;;15.18;5.07;;;;;;;10.94;100.00;101512.16;5117644;28;20031;-64
2022/01/02 03:33:03;;;;;;;13.45;5.05;;;;;;;10.90;100.00;101518.31;5117248;28;20469;-64
2022/01/02 03:35:28;;;;;;;13.95;5.38;;;;;;;10.94;100.00;101527.88;5117114;28;20066;-66
2022/01/02 03:37:54;;;;;;;10.43;4.50;;;;;;;10.91;100.00;101527.91;5117526;28;20496;-67
2022/01/02 03:40:20;;;;;;;12.02;5.18;;;;;;;10.90;100.00;101532.28;5117304;28;20035;-66
2022/01/02 03:42:45;;;;;;;11.07;4.93;;;;;;;10.86;100.00;101532.28;5117078;28;20122;-65
2022/01/02 03:45:10;;;;;;;15.00;4.63;;;;;;;10.91;100.00;101522.69;5117499;28;20019;-66
2022/01/02 03:47:36;;;;;;;9.52;4.50;;;;;;;10.82;100.00;101513.97;5116994;28;20402;-66
2022/01/02 03:50:03;;;;;;;12.00;4.75;;;;;;;10.85;100.00;101506.97;5117202;28;20039;-64
2022/01/02 03:52:28;;;;;;;12.65;4.78;;;;;;;10.82;100.00;101513.97;5117016;28;20059;-67
2022/01/02 03:54:54;;;;;;;12.45;5.03;;;;;;;10.84;100.00;101507.84;5116835;28;20059;-65
2022/01/02 03:57:19;;;;;;;13.55;4.90;;;;;;;10.81;100.00;101499.13;5116566;28;20093;-66
2022/01/02 03:59:45;;;;;;;13.60;5.38;;;;;;;10.81;100.00;101503.50;5116703;28;20315;-65
2022/01/02 04:02:10;;;;;;;12.80;5.05;;;;;;;10.85;100.00;101496.50;5117257;28;20035;-65
2022/01/02 04:04:36;;;;;;;10.95;4.80;;;;;;;10.80;100.00;101471.22;5116914;28;20038;-64
2022/01/02 04:07:01;;;;;;;14.80;5.07;;;;;;;10.82;100.00;101474.69;5099028;28;20071;-65
2022/01/02 04:09:26;;;;;;;11.13;5.07;;;;;;;10.74;100.00;101457.25;5116803;28;20028;-65
2022/01/02 04:11:51;;;;;;;13.48;5.10;;;;;;;10.80;100.00;101462.47;5116695;28;20055;-67
2022/01/02 04:14:17;;;;;;;13.90;4.85;;;;;;;10.75;100.00;101459.00;5116445;28;20112;-65
2022/01/02 04:16:42;;;;;;;11.15;4.75;;;;;;;10.76;100.00;101463.38;5116542;28;20046;-66
2022/01/02 04:19:07;;;;;;;11.10;4.72;;;;;;;10.70;100.00;101450.31;5116745;28;20024;-67
2022/01/02 04:21:33;;;;;;;11.25;4.90;;;;;;;10.78;100.00;101461.63;5116450;28;20034;-67
2022/01/02 04:23:58;;;;;;;15.60;4.88;;;;;;;10.73;100.00;101455.56;5116646;28;20035;-66
2022/01/02 04:26:23;;;;;;;12.55;4.88;;;;;;;10.71;100.00;101458.16;5116316;28;20028;-66
2022/01/02 04:28:48;;;;;;;13.27;4.95;;;;;;;10.71;100.00;101471.25;5115801;28;20434;-65
2022/01/02 04:31:14;;;;;;;11.80;5.10;;;;;;;10.67;100.00;101466.03;5116050;28;20024;-67
2022/01/02 04:33:40;;;;;;;12.48;4.90;;;;;;;10.71;100.00;101463.41;5116010;28;20046;-66
2022/01/02 04:36:05;;;;;;;11.35;4.30;;;;;;;10.68;100.00;101458.19;5116520;28;20019;-65
2022/01/02 04:38:31;;;;;;;11.07;4.70;;;;;;;10.66;100.00;101454.69;5116126;28;20038;-68
2022/01/02 04:40:56;;;;;;;12.45;5.70;;;;;;;10.65;100.00;101452.06;5115919;28;20038;-67
2022/01/02 04:43:22;;;;;;;12.45;4.70;;;;;;;10.69;100.00;101445.97;5116478;28;20034;-68
2022/01/02 04:45:47;;;;;;;11.48;4.70;;;;;;;10.72;100.00;101433.75;5115421;28;20032;-66
2022/01/02 04:48:13;;;;;;;15.35;4.50;;;;;;;10.62;100.00;101426.78;5115675;28;20042;-65
2022/01/02 04:50:38;;;;;;;9.18;4.70;;;;;;;10.62;100.00;101416.31;5115995;28;20089;-65
2022/01/02 04:53:04;;;;;;;10.60;4.47;;;;;;;10.65;100.00;101426.78;5115989;28;20028;-65
2022/01/02 04:55:29;;;;;;;11.98;4.30;;;;;;;10.63;100.00;101414.56;5115907;28;20066;-65
2022/01/02 04:57:55;;;;;;;13.45;4.90;;;;;;;10.66;100.00;101415.44;5115437;28;20025;-66
2022/01/02 05:00:20;;;;;;;8.48;4.22;;;;;;;10.65;100.00;101403.22;5115424;28;20425;-66
2022/01/02 05:02:45;;;;;;;9.18;4.50;;;;;;;10.65;100.00;101384.03;5115896;28;20392;-65
2022/01/02 05:05:11;;;;;;;11.00;4.40;;;;;;;10.57;100.00;101368.34;5115857;28;20446;-65
2022/01/02 05:07:36;;;;;;;11.13;4.80;;;;;;;10.55;100.00;101367.50;5115602;28;20035;-65
2022/01/02 05:10:03;;;;;;;12.48;4.60;;;;;;;10.49;100.00;101357.06;5115885;28;20031;-65
2022/01/02 05:12:29;;;;;;;15.07;5.10;;;;;;;10.55;100.00;101372.75;5115081;28;20430;-67
2022/01/02 05:14:54;;;;;;;14.40;4.93;;;;;;;10.55;100.00;101354.44;5115462;28;20034;-65
2022/01/02 05:17:19;;;;;;;11.50;4.93;;;;;;;10.56;100.00;101364.03;5115653;28;20096;-66
2022/01/02 05:19:45;;;;;;;10.60;4.95;;;;;;;10.51;100.00;101350.09;5115626;28;20036;-65
2022/01/02 05:22:10;;;;;;;10.90;4.35;;;;;;;10.57;100.00;101357.00;5115829;28;20118;-65
2022/01/02 05:24:35;;;;;;;8.52;4.55;;;;;;;10.53;100.00;101348.34;5115505;28;20404;-66
2022/01/02 05:27:00;;;;;;;11.68;4.90;;;;;;;10.42;100.00;101326.56;5115456;28;20031;-67
2022/01/02 05:29:26;;;;;;;9.57;4.60;;;;;;;10.56;100.00;101339.59;5114997;28;20023;-65
2022/01/02 05:31:51;;;;;;;10.43;4.80;;;;;;;10.50;100.00;101335.25;5115551;28;20036;-64
2022/01/02 05:34:17;;;;;;;11.82;4.93;;;;;;;10.60;100.00;101336.94;5115538;28;20110;-64
2022/01/02 05:36:48;;;;;;;11.90;4.68;;;;;;;10.57;100.00;101328.22;5115542;28;20431;-65
2022/01/02 05:39:23;;;;;;;11.93;5.17;;;;;;;10.53;100.00;101329.16;5115245;28;20092;-65
2022/01/02 05:41:50;;;;;;;10.40;4.88;;;;;;;10.51;100.00;101330.91;5115346;28;20055;-66
2022/01/02 05:44:15;;;;;;;11.38;5.05;;;;;;;10.52;100.00;101317.81;5114910;28;20038;-64
2022/01/02 05:46:42;;;;;;;11.57;4.80;;;;;;;10.56;100.00;101314.31;5115165;28;20054;-65
2022/01/02 05:49:07;;;;;;;11.85;4.60;;;;;;;10.55;100.00;101315.19;5115223;28;20430;-66
2022/01/02 05:51:33;;;;;;;12.65;4.53;;;;;;;10.58;100.00;101311.66;5115234;28;20123;-67
2022/01/02 05:53:58;;;;;;;11.38;4.63;;;;;;;10.51;100.00;101297.75;5115397;28;20023;-64
2022/01/02 05:56:23;;;;;;;11.10;4.10;;;;;;;10.53;100.00;101289.88;5115008;28;20118;-68
2022/01/02 05:58:49;;;;;;;11.45;4.53;;;;;;;10.54;100.00;101271.56;5118055;28;20440;-66
2022/01/02 06:01:14;;;;;;;10.05;4.72;;;;;;;10.50;100.00;101275.06;5119350;28;20118;-66
2022/01/02 06:03:39;;;;;;;8.23;4.10;;;;;;;10.49;100.00;101270.72;5119412;28;20110;-64
2022/01/02 06:06:05;;;;;;;8.35;4.35;;;;;;;10.46;100.00;101248.06;5119133;28;20431;-64
2022/01/02 06:08:30;;;;;;;8.75;4.25;;;;;;;10.46;100.00;101248.06;5119002;28;20020;-64
2022/01/02 06:10:55;;;;;;;9.32;4.07;;;;;;;10.43;100.00;101242.84;5118926;28;20437;-65
2022/01/02 06:13:21;;;;;;;12.20;4.10;;;;;;;10.48;100.00;101248.03;5118931;28;20375;-65
2022/01/02 06:15:46;;;;;;;8.77;4.50;;;;;;;10.46;100.00;101239.34;5119028;28;20027;-66
2022/01/02 06:18:12;;;;;;;8.55;3.88;;;;;;;10.46;100.00;101234.97;5118499;28;20031;-68
2022/01/02 06:20:37;;;;;;;8.38;3.92;;;;;;;10.53;100.00;101230.56;5118997;28;20023;-66
2022/01/02 06:23:03;;;;;;;8.25;3.88;;;;;;;10.45;100.00;101219.28;5100590;28;20036;-64
2022/01/02 06:25:28;;;;;;;7.75;3.85;;;;;;;10.47;100.00;101196.59;5118551;28;20152;-65
2022/01/02 06:27:54;;;;;;;8.50;3.95;;;;;;;10.38;100.00;101180.97;5119252;28;20031;-66
2022/01/02 06:30:19;;;;;;;8.38;3.42;;;;;;;10.63;100.00;101172.03;5118527;28;20028;-67
2022/01/02 06:32:44;;;;;;;7.82;3.75;;;;;;;10.64;100.00;101173.78;5118771;28;20035;-65
2022/01/02 06:35:10;;;;;;;7.80;3.75;;;;;;;10.53;100.00;101164.28;5118615;28;20024;-65
2022/01/02 06:37:36;;;;;;;10.23;3.75;;;;;;;10.58;100.00;101157.25;5118793;28;20097;-65
2022/01/02 06:40:02;;;;;;;7.40;3.58;;;;;;;10.49;100.00;101152.09;5118860;28;20114;-65
2022/01/02 06:42:27;;;;;;;7.63;3.63;;;;;;;10.37;100.00;101126.91;5118313;28;20031;-66
2022/01/02 06:44:52;;;;;;;8.43;3.90;;;;;;;10.47;100.00;101120.72;5118495;28;20346;-65
2022/01/02 06:47:18;;;;;;;8.75;3.88;;;;;;;10.40;100.00;101108.56;5118220;28;20024;-65
2022/01/02 06:49:43;;;;;;;8.10;3.67;;;;;;;10.35;100.00;101097.28;5118386;28;20032;-65
2022/01/02 06:52:08;;;;;;;8.68;3.45;;;;;;;10.38;100.00;101092.91;5118602;28;20028;-66
2022/01/02 06:54:33;;;;;;;8.13;3.65;;;;;;;10.46;100.00;101095.44;5118169;28;20110;-65
2022/01/02 06:56:59;;;;;;;10.30;3.75;;;;;;;10.48;100.00;101091.06;5117902;28;20031;-65
2022/01/02 06:59:25;;;;;;;6.80;3.53;;;;;;;10.39;100.00;101071.06;5117996;28;20034;-65
2022/01/02 07:01:50;;;;;;;9.45;3.33;;;;;;;10.53;99.36;101085.78;5118077;28;20035;-64
2022/01/02 07:04:15;;;;;;;10.38;3.67;;;;;;;10.51;99.61;101083.19;5118106;28;20023;-65
2022/01/02 07:06:41;;;;;;;7.68;3.17;;;;;;;10.51;99.56;101079.69;5118010;28;20027;-64
2022/01/02 07:09:06;;;;;;;6.03;3.08;;;;;;;10.50;98.96;101065.75;5117061;28;20434;-66
2022/01/02 07:11:31;;;;;;;8.48;3.00;;;;;;;10.51;98.87;101066.63;5116178;28;20315;-66
2022/01/02 07:13:57;;;;;;;7.18;3.10;;;;;;;10.49;99.25;101082.31;5118019;28;20044;-66
2022/01/02 07:16:22;;;;;;;8.00;3.05;;;;;;;10.51;99.33;101084.94;5101793;28;20039;-65
2022/01/02 07:18:47;;;;;;;6.68;3.50;;;;;;;10.53;98.86;101088.41;5097257;28;20398;-64
2022/01/02 07:21:13;;;;;;;7.35;3.38;;;;;;;10.48;98.70;101084.94;5097312;28;20038;-65
2022/01/02 07:23:38;;;;;;;6.30;2.95;;;;;;;10.53;98.12;101097.13;5097451;28;20024;-66
2022/01/02 07:26:04;;;;;;;8.07;3.28;;;;;;;10.52;99.05;101084.91;5097091;28;20039;-66
2022/01/02 07:28:33;;;;;;;8.05;3.42;;;;;;;10.51;98.88;101072.72;5097142;28;20039;-65
2022/01/02 07:30:58;;;;;;;5.82;3.03;;;;;;;10.48;98.51;101069.25;5096954;28;20079;-66
2022/01/02 07:33:24;;;;;;;6.38;3.00;;;;;;;10.47;98.50;101057.91;5097177;28;20045;-65
2022/01/02 07:35:49;;;;;;;4.60;2.90;;;;;;;10.45;97.70;101044.84;5097378;28;20043;-65
2022/01/02 07:38:14;;;;;;;5.10;2.92;;;;;;;10.50;97.04;101047.44;5096823;28;20024;-64
2022/01/02 07:40:39;;;;;;;7.28;3.15;;;;;;;10.49;97.89;101071.84;5096768;28;20438;-63
2022/01/02 07:43:05;;;;;;;10.18;2.90;;;;;;;10.61;96.24;101070.88;5096881;28;20111;-66
2022/01/02 07:45:30;;;;;;;5.65;2.85;;;;;;;10.60;95.73;101058.66;5113048;28;20426;-65
2022/01/02 07:47:55;;;;;;;7.55;3.20;;;;;;;10.56;96.46;101065.69;5117527;28;20031;-65
2022/01/02 07:50:22;;;;;;;8.00;3.22;;;;;;;10.71;94.37;101077.75;5117914;28;20043;-65
2022/01/02 07:52:48;;;;;;;8.50;3.22;;;;;;;10.72;95.28;101067.28;5117323;28;20096;-65
2022/01/02 07:55:14;;;;;;;6.22;3.22;;;;;;;10.75;95.25;101082.91;5110651;28;20031;-63
2022/01/02 07:57:39;;;;;;;5.97;2.90;;;;;;;10.71;95.64;101081.25;5116851;28;20415;-63
2022/01/02 08:00:05;;;;;;;7.43;2.80;;;;;;;10.75;95.48;101103.88;5116790;28;20077;-65
2022/01/02 08:02:30;;;;;;;5.20;3.08;;;;;;;10.68;96.07;101098.72;5116763;28;20134;-66
2022/01/02 08:04:55;;;;;;;6.57;3.40;;;;;;;10.56;97.24;101081.41;5116928;28;20119;-65
2022/01/02 08:07:21;;;;;;;9.10;3.40;;;;;;;10.55;98.31;101081.41;5116731;28;20050;-63
2022/01/02 08:09:46;;;;;;;5.80;3.13;;;;;;;10.49;98.34;101084.06;5116893;28;20032;-65
2022/01/02 08:12:11;;;;;;;7.85;3.10;;;;;;;10.47;98.73;101097.16;5098851;28;20340;-66
2022/01/02 08:14:37;;;;;;;6.10;3.10;;;;;;;10.41;98.47;101092.84;5116928;28;20056;-65
2022/01/02 08:17:02;;;;;;;6.10;3.28;;;;;;;10.49;98.97;101107.63;5117315;28;20112;-59
2022/01/02 08:19:27;;;;;;;7.15;3.42;;;;;;;10.40;99.73;101108.56;5116732;28;20027;-66
2022/01/02 08:21:53;;;;;;;10.43;3.40;;;;;;;10.38;100.00;101112.97;5115447;28;20019;-65
2022/01/02 08:24:18;;;;;;;8.55;3.70;;;;;;;10.39;99.11;101114.69;5116338;28;20024;-65
2022/01/02 08:26:43;;;;;;;5.68;3.13;;;;;;;10.40;99.33;101111.16;5116526;28;20027;-65
2022/01/02 08:29:08;;;;;;;4.75;3.05;;;;;;;10.46;98.29;101090.19;5116291;28;20408;-65
2022/01/02 08:31:35;;;;;;;6.57;3.53;;;;;;;10.50;98.45;101070.13;5116372;28;20394;-65
2022/01/02 08:34:00;;;;;;;5.40;2.95;;;;;;;10.49;96.37;101087.56;5116712;28;20028;-65
2022/01/02 08:36:26;;;;;;;6.07;3.72;;;;;;;10.53;97.26;101111.97;5098676;28;20359;-66
2022/01/02 08:38:51;;;;;;;6.85;3.20;;;;;;;10.65;95.44;101089.16;5116252;28;20030;-64
2022/01/02 08:41:17;;;;;;;5.47;3.13;;;;;;;10.59;95.55;101088.31;5116150;28;20035;-66
2022/01/02 08:43:43;;;;;;;6.15;3.22;;;;;;;10.63;95.46;101096.13;5115910;28;20028;-65
2022/01/02 08:46:09;;;;;;;6.63;3.35;;;;;;;10.62;95.47;101097.03;5097932;28;20019;-66
2022/01/02 08:48:34;;;;;;;7.32;3.20;;;;;;;10.64;94.31;101097.00;5116245;28;20027;-65
2022/01/02 08:51:00;;;;;;;4.25;2.78;;;;;;;10.82;92.74;101097.69;5115602;28;20362;-64
2022/01/02 08:53:27;;;;;;;6.63;3.40;;;;;;;10.89;92.33;101105.50;5097935;28;20055;-65
2022/01/02 08:55:53;;;;;;;5.93;3.40;;;;;;;10.97;91.71;101115.00;5115823;28;20397;-64
2022/01/02 08:58:19;;;;;;;6.45;3.35;;;;;;;10.99;92.16;101123.69;5115778;28;20104;-66
2022/01/02 09:00:45;;;;;;;5.97;3.35;;;;;;;11.04;92.20;101114.06;5116016;28;20028;-65
2022/01/02 09:03:10;;;;;;;5.88;3.20;;;;;;;11.04;90.56;101106.19;5116028;28;20027;-64
2022/01/02 09:05:35;;;;;;;4.78;3.38;;;;;;;11.14;89.07;101099.09;5115868;28;20031;-65
2022/01/02 09:08:00;;;;;;;7.07;3.90;;;;;;;11.09;89.20;101098.25;5115586;28;20051;-64
2022/01/02 09:10:26;;;;;;;6.05;3.20;;;;;;;11.01;90.26;101100.13;5115544;28;20035;-64
2022/01/02 09:12:51;;;;;;;6.88;3.90;;;;;;;11.04;90.01;101098.34;5115558;28;20243;-64
2022/01/02 09:15:16;;;;;;;6.60;3.78;;;;;;;11.06;90.63;101099.19;5115593;28;20122;-62
2022/01/02 09:17:42;;;;;;;8.52;3.90;;;;;;;11.08;90.99;101094.78;5115652;28;20092;-62
2022/01/02 09:20:09;;;;;;;5.90;3.78;;;;;;;11.23;89.52;101099.00;5115549;28;20036;-58
2022/01/02 09:22:36;;;;;;;7.38;3.63;;;;;;;11.18;90.18;101085.06;5102448;28;20039;-64
2022/01/02 09:25:03;;;;;;;9.45;4.07;;;;;;;11.33;89.45;101091.88;5095063;28;20036;-65
2022/01/02 09:27:28;;;;;;;6.07;3.80;;;;;;;11.36;90.65;101103.19;5095210;28;20115;-63
2022/01/02 09:29:53;;;;;;;9.18;4.88;;;;;;;11.61;88.48;101098.47;5094978;28;20162;-62
2022/01/02 09:32:19;;;;;;;9.98;4.90;;;;;;;11.69;88.62;101104.50;5094440;28;20122;-64
2022/01/02 09:34:45;;;;;;;9.02;4.43;;;;;;;11.69;88.41;101083.53;5095515;28;20036;-62
2022/01/02 09:37:11;;;;;;;7.43;4.47;;;;;;;11.81;89.44;101095.63;5094836;28;20035;-65
2022/01/02 09:39:36;;;;;;;7.30;4.15;;;;;;;11.86;88.92;101106.91;5094602;28;20111;-64
2022/01/02 09:42:03;;;;;;;10.50;4.65;;;;;;;11.89;88.70;101106.88;5094656;28;20046;-62
2022/01/02 09:44:30;;;;;;;7.70;4.25;;;;;;;11.92;87.80;101117.34;5094893;28;20086;-65
2022/01/02 09:46:56;;;;;;;13.38;4.75;;;;;;;11.93;88.46;101112.94;5094886;28;20032;-64
2022/01/02 09:49:21;;;;;;;8.80;4.90;;;;;;;11.91;88.95;101117.34;5094859;28;20059;-64
2022/01/02 09:51:47;;;;;;;6.60;4.55;;;;;;;11.87;88.21;101127.00;5094624;28;20031;-66
2022/01/02 09:54:13;;;;;;;7.45;4.40;;;;;;;11.87;87.54;101132.25;5094657;28;20359;-63
2022/01/02 09:56:38;;;;;;;8.88;5.00;;;;;;;11.80;88.05;101114.84;5094487;28;20028;-62
2022/01/02 09:59:03;;;;;;;8.40;4.68;;;;;;;11.81;87.37;101124.47;5094508;28;20046;-64
2022/01/02 10:01:30;;;;;;;9.55;4.60;;;;;;;11.84;86.54;101127.03;5095151;28;20040;-62
2022/01/02 10:03:57;;;;;;;10.95;5.10;;;;;;;11.93;86.79;101132.19;5094636;28;20067;-64
2022/01/02 10:06:41;;;;;;;9.40;5.07;;;;;;;11.98;87.53;101125.09;5094836;28;20453;-66
2022/01/02 10:09:15;;;;;;;8.63;4.60;;;;;;;12.00;87.58;101131.19;5094703;28;20032;-62
2022/01/02 10:11:40;;;;;;;8.70;4.82;;;;;;;12.18;86.53;101128.28;5095077;28;20028;-64
2022/01/02 10:14:09;;;;;;;7.63;4.30;;;;;;;12.34;85.69;101139.41;5095081;28;20101;-64
2022/01/02 10:16:40;;;;;;;10.98;4.55;;;;;;;12.43;85.81;101134.03;5094743;28;20032;-61
2022/01/02 10:19:29;;;;;;;8.07;4.85;;;;;;;12.44;85.55;101135.75;5094033;28;20040;-61
2022/01/02 10:22:03;;;;;;;9.27;4.60;;;;;;;12.35;85.62;101127.16;5094536;28;20039;-62
2022/01/02 10:24:30;;;;;;;9.15;4.40;;;;;;;12.28;86.08;101128.16;5094796;28;20443;-63
2022/01/02 10:27:08;;;;;;;8.32;4.28;;;;;;;12.26;86.39;101119.44;5094567;28;20056;-61
2022/01/02 10:29:53;;;;;;;8.50;4.25;;;;;;;12.40;85.99;101114.81;5094110;28;20429;-62
2022/01/02 10:32:34;;;;;;;8.80;4.45;;;;;;;12.37;86.47;101117.50;5094602;28;20042;-60
2022/01/02 10:35:21;;;;;;;11.40;4.68;;;;;;;12.44;85.93;101120.00;5094661;28;20031;-62
2022/01/02 10:37:58;;;;;;;10.88;4.32;;;;;;;12.38;85.77;101099.09;5094329;28;20020;-61
2022/01/02 10:40:29;;;;;;;8.48;4.47;;;;;;;12.35;85.03;101104.41;5094206;28;20020;-61
2022/01/02 10:42:55;;;;;;;8.50;4.32;;;;;;;12.40;85.60;101102.56;5094265;28;20028;-62
2022/01/02 10:45:39;;;;;;;8.48;4.30;;;;;;;12.42;85.35;101105.16;5096320;28;20028;-61
2022/01/02 10:48:08;;;;;;;9.95;4.35;;;;;;;12.37;85.32;101107.00;5097914;28;20032;-62
2022/01/02 10:50:35;;;;;;;14.57;4.85;;;;;;;12.29;86.53;101115.00;5097527;28;20047;-62
2022/01/02 10:53:12;;;;;;;9.10;4.32;;;;;;;12.44;85.48;101112.13;5097912;28;20047;-62
2022/01/02 10:55:37;;;;;;;10.18;4.10;;;;;;;12.41;85.27;101092.94;5098141;28;20047;-60
2022/01/02 10:58:07;;;;;;;9.60;4.40;;;;;;;12.37;86.32;101107.00;5097871;28;20035;-63
2022/01/02 11:00:32;;;;;;;10.45;4.45;;;;;;;12.36;85.98;101102.63;5097839;28;20097;-62
2022/01/02 11:02:59;;;;;;;12.40;4.85;;;;;;;12.41;85.65;101116.56;5097303;28;20040;-62
2022/01/02 11:05:28;;;;;;;10.60;3.80;;;;;;;12.35;85.96;101116.66;5097429;28;20032;-62
2022/01/02 11:08:00;;;;;;;7.85;3.92;;;;;;;12.42;85.95;101111.28;5097581;28;20492;-61
2022/01/02 11:10:27;;;;;;;10.48;4.47;;;;;;;12.46;85.29;101097.22;5097551;28;20466;-61
2022/01/02 11:12:54;;;;;;;11.55;4.22;;;;;;;12.48;85.73;101102.41;5097399;28;20055;-61
2022/01/02 11:15:24;;;;;;;8.93;4.30;;;;;;;12.63;83.89;101091.69;5097339;28;20050;-59
2022/01/02 11:17:50;;;;;;;8.43;4.07;;;;;;;12.65;84.05;101091.63;5097492;28;20036;-60
2022/01/02 11:20:21;;;;;;;8.65;3.92;;;;;;;12.58;85.49;101085.63;5097384;28;20398;-61
2022/01/02 11:22:59;;;;;;;8.82;4.07;;;;;;;12.75;84.98;101086.19;5097248;28;20093;-60
2022/01/02 11:25:37;;;;;;;9.13;4.13;;;;;;;13.00;84.21;101096.22;5097238;28;20182;-62